createdAt,value
2022-07-25T00:02:10.396Z,23.10
2022-07-25T00:04:38.587Z,23.06
2022-07-25T00:07:06.501Z,23.09
2022-07-25T00:09:34.554Z,23.09
2022-07-25T00:12:02.559Z,23.05
2022-07-25T00:14:33.770Z,23.02
2022-07-25T00:17:03.057Z,22.98
2022-07-25T00:19:30.927Z,23.00
2022-07-25T00:21:58.735Z,22.96
2022-07-25T00:24:26.562Z,22.87
2022-07-25T00:26:54.506Z,22.76
2022-07-25T00:29:22.326Z,22.71
2022-07-25T00:31:50.617Z,22.71
2022-07-25T00:34:19.874Z,22.61
2022-07-25T00:36:47.966Z,22.48
2022-07-25T00:39:15.882Z,22.51
2022-07-25T00:41:44.408Z,22.51
2022-07-25T00:44:23.121Z,22.48
2022-07-25T00:46:53.147Z,22.46
2022-07-25T00:49:22.489Z,22.43
2022-07-25T00:51:51.081Z,22.38
2022-07-25T00:54:19.078Z,22.35
2022-07-25T00:56:48.133Z,22.44
2022-07-25T00:59:16.586Z,22.34
2022-07-25T01:01:47.712Z,22.30
2022-07-25T01:04:17.093Z,22.29
2022-07-25T01:06:46.520Z,22.24
2022-07-25T01:09:14.528Z,22.20
2022-07-25T01:11:42.378Z,22.16
2022-07-25T01:14:10.328Z,22.17
2022-07-25T01:16:38.369Z,22.11
2022-07-25T01:19:06.290Z,22.14
2022-07-25T01:21:39.033Z,22.17
2022-07-25T01:24:08.847Z,22.07
2022-07-25T01:26:37.610Z,22.17
2022-07-25T01:29:05.610Z,22.07
2022-07-25T01:31:33.622Z,22.06
2022-07-25T01:34:01.562Z,22.07
2022-07-25T01:36:29.522Z,22.03
2022-07-25T01:38:58.787Z,22.03
2022-07-25T01:41:26.738Z,22.06
2022-07-25T01:43:54.493Z,22.03
2022-07-25T01:46:22.406Z,22.07
2022-07-25T01:48:50.331Z,22.04
2022-07-25T01:51:20.572Z,22.02
2022-07-25T01:53:48.619Z,22.01
2022-07-25T01:56:17.997Z,21.88
2022-07-25T01:58:49.780Z,21.83
2022-07-25T02:01:17.717Z,21.71
2022-07-25T02:03:49.480Z,21.63
2022-07-25T02:06:18.655Z,21.60
2022-07-25T02:08:46.497Z,21.55
2022-07-25T02:11:14.284Z,21.48
2022-07-25T02:13:43.465Z,21.43
2022-07-25T02:16:11.471Z,21.41
2022-07-25T02:18:39.596Z,21.35
2022-07-25T02:21:13.845Z,21.36
2022-07-25T02:23:43.052Z,21.33
2022-07-25T02:26:11.244Z,21.35
2022-07-25T02:28:39.082Z,21.30
2022-07-25T02:31:09.093Z,21.29
2022-07-25T02:33:37.683Z,21.13
2022-07-25T02:36:05.820Z,21.07
2022-07-25T02:38:33.694Z,21.03
2022-07-25T02:41:01.734Z,21.06
2022-07-25T02:43:29.819Z,21.03
2022-07-25T02:45:57.992Z,20.84
2022-07-25T02:48:27.385Z,20.86
2022-07-25T02:50:55.346Z,20.84
2022-07-25T02:53:46.816Z,20.87
2022-07-25T02:56:11.114Z,20.91
2022-07-25T02:58:41.977Z,20.91
2022-07-25T03:01:10.569Z,20.89
2022-07-25T03:03:40.168Z,20.87
2022-07-25T03:06:08.252Z,20.84
2022-07-25T03:08:36.070Z,20.72
2022-07-25T03:11:04.780Z,20.58
2022-07-25T03:13:33.038Z,20.56
2022-07-25T03:16:00.933Z,20.55
2022-07-25T03:18:29.015Z,20.52
2022-07-25T03:20:58.148Z,20.45
2022-07-25T03:23:27.315Z,20.45
2022-07-25T03:25:55.330Z,20.47
2022-07-25T03:28:23.214Z,20.43
2022-07-25T03:30:51.381Z,20.35
2022-07-25T03:33:19.251Z,20.32
2022-07-25T03:35:47.416Z,20.29
2022-07-25T03:38:16.731Z,20.33
2022-07-25T03:40:44.580Z,20.22
2022-07-25T03:43:12.497Z,20.16
2022-07-25T03:45:40.409Z,20.06
2022-07-25T03:48:08.390Z,20.03
2022-07-25T03:50:36.152Z,20.03
2022-07-25T03:53:03.994Z,19.94
2022-07-25T03:55:33.215Z,19.88
2022-07-25T03:58:01.068Z,19.83
2022-07-25T04:00:29.018Z,19.84
2022-07-25T04:02:57.361Z,19.83
2022-07-25T04:05:25.241Z,19.90
2022-07-25T04:07:53.093Z,19.94
2022-07-25T04:10:20.990Z,20.03
2022-07-25T04:12:50.152Z,20.09
2022-07-25T04:15:18.209Z,20.12
2022-07-25T04:17:46.111Z,20.22
2022-07-25T04:20:14.336Z,20.24
2022-07-25T04:22:46.742Z,20.31
2022-07-25T04:25:15.154Z,20.37
2022-07-25T04:27:43.293Z,20.36
2022-07-25T04:30:13.993Z,20.44
2022-07-25T04:32:52.088Z,20.55
2022-07-25T04:35:19.919Z,20.74
2022-07-25T04:37:47.712Z,20.82
2022-07-25T04:40:16.550Z,20.92
2022-07-25T04:42:44.365Z,21.02
2022-07-25T04:45:14.191Z,21.12
2022-07-25T04:47:45.754Z,21.25
2022-07-25T04:50:13.991Z,21.35
2022-07-25T04:52:41.837Z,21.57
2022-07-25T04:55:10.166Z,21.72
2022-07-25T04:57:38.396Z,21.85
2022-07-25T05:00:07.957Z,22.02
2022-07-25T05:02:37.409Z,22.30
2022-07-25T05:05:06.106Z,22.64
2022-07-25T05:07:33.977Z,22.85
2022-07-25T05:10:02.409Z,23.06
2022-07-25T05:12:30.179Z,23.21
2022-07-25T05:14:58.144Z,23.59
2022-07-25T05:17:25.933Z,23.62
2022-07-25T05:19:55.188Z,23.98
2022-07-25T05:22:27.978Z,23.95
2022-07-25T05:24:56.393Z,24.47
2022-07-25T05:27:24.373Z,24.40
2022-07-25T05:29:52.205Z,24.32
2022-07-25T05:32:20.090Z,24.66
2022-07-25T05:34:47.942Z,24.88
2022-07-25T05:37:17.115Z,25.18
2022-07-25T05:39:45.021Z,25.17
2022-07-25T05:42:13.030Z,25.26
2022-07-25T05:44:40.937Z,25.14
2022-07-25T05:47:10.926Z,25.70
2022-07-25T05:49:39.022Z,25.59
2022-07-25T05:52:12.495Z,25.92
2022-07-25T05:54:42.828Z,26.19
2022-07-25T05:57:10.696Z,26.61
2022-07-25T05:59:38.522Z,26.42
2022-07-25T06:02:06.522Z,26.50
2022-07-25T06:04:34.844Z,26.71
2022-07-25T06:07:02.808Z,26.72
2022-07-25T06:09:31.932Z,26.91
2022-07-25T06:12:01.654Z,26.35
2022-07-25T06:14:30.667Z,26.26
2022-07-25T06:16:58.510Z,26.69
2022-07-25T06:19:26.515Z,26.47
2022-07-25T06:21:54.406Z,26.44
2022-07-25T06:24:22.541Z,26.41
2022-07-25T06:26:50.332Z,26.56
2022-07-25T06:29:19.570Z,27.02
2022-07-25T06:31:47.603Z,27.25
2022-07-25T06:34:15.525Z,27.90
2022-07-25T06:36:43.351Z,28.24
2022-07-25T06:39:11.290Z,28.58
2022-07-25T06:41:39.069Z,28.38
2022-07-25T06:44:07.278Z,29.00
2022-07-25T06:46:36.942Z,28.71
2022-07-25T06:49:04.871Z,28.76
2022-07-25T06:51:32.814Z,29.50
2022-07-25T06:54:01.248Z,29.44
2022-07-25T06:56:31.419Z,28.43
2022-07-25T06:58:59.456Z,28.79
2022-07-25T07:01:27.473Z,29.25
2022-07-25T07:03:56.796Z,29.91
2022-07-25T07:06:24.704Z,30.84
2022-07-25T07:08:52.979Z,30.78
2022-07-25T07:11:21.092Z,31.75
2022-07-25T07:13:48.882Z,30.71
2022-07-25T07:16:16.776Z,29.84
2022-07-25T07:18:48.825Z,29.05
2022-07-25T07:21:21.519Z,29.15
2022-07-25T07:23:53.291Z,29.13
2022-07-25T07:26:22.067Z,29.57
2022-07-25T07:28:49.982Z,30.05
2022-07-25T07:31:18.527Z,29.17
2022-07-25T07:33:46.796Z,29.28
2022-07-25T07:36:14.955Z,29.28
2022-07-25T07:38:45.259Z,30.07
2022-07-25T07:41:13.236Z,30.50
2022-07-25T07:43:41.383Z,31.12
2022-07-25T07:46:09.226Z,31.49
2022-07-25T07:48:37.206Z,31.60
2022-07-25T07:51:05.457Z,31.56
2022-07-25T07:53:50.555Z,31.31
2022-07-25T07:56:20.046Z,31.98
2022-07-25T07:58:47.840Z,31.74
2022-07-25T08:01:15.882Z,32.77
2022-07-25T08:03:43.872Z,32.56
2022-07-25T08:06:11.678Z,32.80
2022-07-25T08:08:39.819Z,32.99
2022-07-25T08:11:07.646Z,33.70
2022-07-25T08:13:38.037Z,33.28
2022-07-25T08:16:06.955Z,32.56
2022-07-25T08:18:34.968Z,33.09
2022-07-25T08:21:06.032Z,32.51
2022-07-25T08:23:35.315Z,32.04
2022-07-25T08:26:03.984Z,31.41
2022-07-25T08:28:31.865Z,31.37
2022-07-25T08:31:01.374Z,31.74
2022-07-25T08:33:29.356Z,31.45
2022-07-25T08:35:58.781Z,31.67
2022-07-25T08:38:28.597Z,31.53
2022-07-25T08:40:58.153Z,31.36
2022-07-25T08:43:25.992Z,30.90
2022-07-25T08:45:55.761Z,31.52
2022-07-25T08:48:27.651Z,31.25
2022-07-25T08:50:57.296Z,31.25
2022-07-25T08:53:34.851Z,30.79
2022-07-25T08:56:11.273Z,30.90
2022-07-25T08:58:44.150Z,31.05
2022-07-25T09:01:12.655Z,31.04
2022-07-25T09:03:43.137Z,31.10
2022-07-25T09:06:22.043Z,31.22
2022-07-25T09:08:54.729Z,32.55
2022-07-25T09:11:31.482Z,32.62
2022-07-25T09:14:01.402Z,32.63
2022-07-25T09:16:34.095Z,32.48
2022-07-25T09:19:14.873Z,33.22
2022-07-25T09:21:44.307Z,34.02
2022-07-25T09:24:16.355Z,33.86
2022-07-25T09:26:46.025Z,33.76
2022-07-25T09:29:18.567Z,34.27
2022-07-25T09:31:47.084Z,35.02
2022-07-25T09:34:18.939Z,35.13
2022-07-25T09:36:55.124Z,36.29
2022-07-25T09:39:33.221Z,35.24
2022-07-25T09:42:01.097Z,33.38
2022-07-25T09:44:30.606Z,33.08
2022-07-25T09:46:58.979Z,32.95
2022-07-25T09:49:40.242Z,33.33
2022-07-25T09:52:08.427Z,33.69
2022-07-25T09:54:36.346Z,33.55
2022-07-25T09:57:04.216Z,34.30
2022-07-25T09:59:33.626Z,34.59
2022-07-25T10:02:09.235Z,35.21
2022-07-25T10:04:46.982Z,35.10
2022-07-25T10:07:19.995Z,34.15
2022-07-25T10:09:49.833Z,33.87
2022-07-25T10:12:21.255Z,33.93
2022-07-25T10:15:05.375Z,33.27
2022-07-25T10:17:33.628Z,32.44
2022-07-25T10:20:04.070Z,31.90
2022-07-25T10:22:55.602Z,31.67
2022-07-25T10:25:24.397Z,31.58
2022-07-25T10:28:00.774Z,31.35
2022-07-25T10:30:30.093Z,30.86
2022-07-25T10:32:59.261Z,30.71
2022-07-25T10:35:29.407Z,30.23
2022-07-25T10:37:59.171Z,29.93
2022-07-25T10:40:33.820Z,29.36
2022-07-25T10:43:09.685Z,29.43
2022-07-25T10:45:43.064Z,29.21
2022-07-25T10:48:13.538Z,29.10
2022-07-25T10:50:55.731Z,29.50
2022-07-25T10:53:35.106Z,29.22
2022-07-25T10:56:09.033Z,28.97
2022-07-25T10:58:51.177Z,28.91
2022-07-25T11:01:24.471Z,28.75
2022-07-25T11:03:53.513Z,28.49
2022-07-25T11:06:35.655Z,28.41
2022-07-25T11:09:04.428Z,28.47
2022-07-25T11:11:42.091Z,28.92
2022-07-25T11:14:17.249Z,29.38
2022-07-25T11:16:45.897Z,29.32
2022-07-25T11:19:21.325Z,29.46
2022-07-25T11:21:52.703Z,29.55
2022-07-25T11:24:20.711Z,29.60
2022-07-25T11:26:50.399Z,29.58
2022-07-25T11:29:27.125Z,29.93
2022-07-25T11:31:56.605Z,30.23
2022-07-25T11:34:27.386Z,29.96
2022-07-25T11:36:58.412Z,30.65
2022-07-25T11:39:27.583Z,31.09
2022-07-25T11:42:04.328Z,30.85
2022-07-25T11:44:37.092Z,31.42
2022-07-25T11:47:06.678Z,30.86
2022-07-25T11:49:45.559Z,30.83
2022-07-25T11:52:22.509Z,30.91
2022-07-25T11:54:58.152Z,30.59
2022-07-25T11:57:27.734Z,30.69
2022-07-25T11:59:56.663Z,30.80
2022-07-25T12:02:26.002Z,31.27
2022-07-25T12:04:55.935Z,30.63
2022-07-25T12:07:45.610Z,30.26
2022-07-25T12:10:16.830Z,30.45
2022-07-25T12:12:50.729Z,30.48
2022-07-25T12:15:21.424Z,30.69
2022-07-25T12:17:50.203Z,30.27
2022-07-25T12:20:19.770Z,30.18
2022-07-25T12:22:50.824Z,30.08
2022-07-25T12:25:18.657Z,30.47
2022-07-25T12:27:46.549Z,30.38
2022-07-25T12:30:15.071Z,30.34
2022-07-25T12:32:43.386Z,29.83
2022-07-25T12:35:14.292Z,29.76
2022-07-25T12:37:42.976Z,29.71
2022-07-25T12:40:14.996Z,30.09
2022-07-25T12:42:43.041Z,31.01
2022-07-25T12:45:12.523Z,31.31
2022-07-25T12:47:40.698Z,31.71
2022-07-25T12:50:09.183Z,31.98
2022-07-25T12:52:37.902Z,31.79
2022-07-25T12:55:06.748Z,32.12
2022-07-25T12:57:37.041Z,31.79
2022-07-25T13:00:05.831Z,31.68
2022-07-25T13:02:33.724Z,32.39
2022-07-25T13:05:01.763Z,31.96
2022-07-25T13:07:29.648Z,30.70
2022-07-25T13:09:57.423Z,31.86
2022-07-25T13:12:25.324Z,32.49
2022-07-25T13:14:54.481Z,32.97
2022-07-25T13:17:26.742Z,32.82
2022-07-25T13:19:56.161Z,32.05
2022-07-25T13:22:24.181Z,31.87
2022-07-25T13:24:52.370Z,32.18
2022-07-25T13:27:21.441Z,32.72
2022-07-25T13:29:53.850Z,32.67
2022-07-25T13:32:24.201Z,32.23
2022-07-25T13:34:52.108Z,32.00
2022-07-25T13:37:20.600Z,31.73
2022-07-25T13:39:48.400Z,31.73
2022-07-25T13:42:16.332Z,31.98
2022-07-25T13:44:44.078Z,31.43
2022-07-25T13:47:12.207Z,31.33
2022-07-25T13:49:41.714Z,32.14
2022-07-25T13:52:09.717Z,31.15
2022-07-25T13:54:37.609Z,30.93
2022-07-25T13:57:05.601Z,30.50
2022-07-25T13:59:33.479Z,30.24
2022-07-25T14:02:01.493Z,30.24
2022-07-25T14:04:30.222Z,30.63
2022-07-25T14:07:00.747Z,30.47
2022-07-25T14:09:28.929Z,30.70
2022-07-25T14:11:56.802Z,30.31
2022-07-25T14:14:24.823Z,30.07
2022-07-25T14:16:53.115Z,29.78
2022-07-25T14:19:21.057Z,30.22
2022-07-25T14:21:48.956Z,30.57
2022-07-25T14:24:18.186Z,30.06
2022-07-25T14:26:46.122Z,30.21
2022-07-25T14:29:14.458Z,29.82
2022-07-25T14:31:42.626Z,29.66
2022-07-25T14:34:10.455Z,29.91
2022-07-25T14:36:38.331Z,29.49
2022-07-25T14:39:06.629Z,29.52
2022-07-25T14:41:36.693Z,29.48
2022-07-25T14:44:04.640Z,29.25
2022-07-25T14:46:33.809Z,29.06
2022-07-25T14:49:01.823Z,29.21
2022-07-25T14:51:30.478Z,29.01
2022-07-25T14:53:58.358Z,28.99
2022-07-25T14:56:26.158Z,28.87
2022-07-25T14:58:55.426Z,28.69
2022-07-25T15:01:25.279Z,28.67
2022-07-25T15:03:56.060Z,28.55
2022-07-25T15:06:28.796Z,28.58
2022-07-25T15:08:57.077Z,28.67
2022-07-25T15:11:25.216Z,28.79
2022-07-25T15:13:55.135Z,28.59
2022-07-25T15:16:23.304Z,28.04
2022-07-25T15:19:15.051Z,27.99
2022-07-25T15:21:40.544Z,27.82
2022-07-25T15:24:08.686Z,27.75
2022-07-25T15:26:37.561Z,27.74
2022-07-25T15:29:09.830Z,27.42
2022-07-25T15:31:38.311Z,27.27
2022-07-25T15:34:06.211Z,27.36
2022-07-25T15:36:34.100Z,27.43
2022-07-25T15:39:01.883Z,27.30
2022-07-25T15:41:29.713Z,27.13
2022-07-25T15:43:57.538Z,26.78
2022-07-25T15:46:27.102Z,26.76
2022-07-25T15:48:55.159Z,27.27
2022-07-25T15:51:23.107Z,26.77
2022-07-25T15:53:51.075Z,26.86
2022-07-25T15:56:18.928Z,26.81
2022-07-25T15:58:48.991Z,26.81
2022-07-25T16:01:16.957Z,26.73
2022-07-25T16:03:46.252Z,26.44
2022-07-25T16:06:18.744Z,26.35
2022-07-25T16:08:46.965Z,26.36
2022-07-25T16:11:24.646Z,25.89
2022-07-25T16:13:52.474Z,25.89
2022-07-25T16:16:22.018Z,25.71
2022-07-25T16:18:51.307Z,25.86
2022-07-25T16:21:19.296Z,26.04
2022-07-25T16:23:47.527Z,25.69
2022-07-25T16:26:15.339Z,25.72
2022-07-25T16:28:43.151Z,25.89
2022-07-25T16:31:11.080Z,25.86
2022-07-25T16:33:39.374Z,25.65
2022-07-25T16:36:09.735Z,25.59
2022-07-25T16:38:37.932Z,25.62
2022-07-25T16:41:06.256Z,25.73
2022-07-25T16:43:34.008Z,25.82
2022-07-25T16:46:02.087Z,26.01
2022-07-25T16:48:30.422Z,26.14
2022-07-25T16:50:58.374Z,26.11
2022-07-25T16:53:27.624Z,26.26
2022-07-25T16:55:55.530Z,26.30
2022-07-25T16:58:23.459Z,26.21
2022-07-25T17:00:51.301Z,26.32
2022-07-25T17:03:19.143Z,26.29
2022-07-25T17:05:47.349Z,26.07
2022-07-25T17:08:15.206Z,26.14
2022-07-25T17:10:44.649Z,26.28
2022-07-25T17:13:12.558Z,26.42
2022-07-25T17:15:40.598Z,26.44
2022-07-25T17:18:08.428Z,26.36
2022-07-25T17:20:36.589Z,26.21
2022-07-25T17:23:04.734Z,26.04
2022-07-25T17:25:32.672Z,26.21
2022-07-25T17:28:02.593Z,25.85
2022-07-25T17:30:30.390Z,25.98
2022-07-25T17:32:59.551Z,25.95
2022-07-25T17:35:27.369Z,25.83
2022-07-25T17:37:55.250Z,25.64
2022-07-25T17:40:23.200Z,25.60
2022-07-25T17:42:51.042Z,25.50
2022-07-25T17:45:20.178Z,25.34
2022-07-25T17:47:47.948Z,25.25
2022-07-25T17:50:16.852Z,25.13
2022-07-25T17:52:44.857Z,25.12
2022-07-25T17:55:13.584Z,25.26
2022-07-25T17:57:42.546Z,25.12
2022-07-25T18:00:12.040Z,25.06
2022-07-25T18:02:42.193Z,25.01
2022-07-25T18:05:10.659Z,24.95
2022-07-25T18:07:40.689Z,25.04
2022-07-25T18:10:09.050Z,24.99
2022-07-25T18:12:36.988Z,24.88
2022-07-25T18:15:05.418Z,24.84
2022-07-25T18:17:33.451Z,24.70
2022-07-25T18:20:03.954Z,24.67
2022-07-25T18:22:31.894Z,24.72
2022-07-25T18:24:59.728Z,24.70
2022-07-25T18:27:27.600Z,24.61
2022-07-25T18:29:55.436Z,24.46
2022-07-25T18:32:23.228Z,24.50
2022-07-25T18:34:51.036Z,24.59
2022-07-25T18:37:20.289Z,24.63
2022-07-25T18:39:48.179Z,24.66
2022-07-25T18:42:15.993Z,24.45
2022-07-25T18:44:43.805Z,24.45
2022-07-25T18:47:11.816Z,24.33
2022-07-25T18:49:41.938Z,24.45
2022-07-25T18:52:09.785Z,24.46
2022-07-25T18:54:38.988Z,24.52
2022-07-25T18:57:06.950Z,24.43
2022-07-25T18:59:34.885Z,24.37
2022-07-25T19:02:02.987Z,24.38
2022-07-25T19:04:30.983Z,24.35
2022-07-25T19:06:58.793Z,24.26
2022-07-25T19:09:26.920Z,24.32
2022-07-25T19:11:56.567Z,24.23
2022-07-25T19:14:27.177Z,23.99
2022-07-25T19:16:55.342Z,23.91
2022-07-25T19:19:23.176Z,23.89
2022-07-25T19:21:51.187Z,23.83
2022-07-25T19:24:19.095Z,23.70
2022-07-25T19:26:47.983Z,23.74
2022-07-25T19:29:18.238Z,23.67
2022-07-25T19:31:46.145Z,23.65
2022-07-25T19:34:13.961Z,23.64
2022-07-25T19:36:43.809Z,23.60
2022-07-25T19:39:12.373Z,23.62
2022-07-25T19:41:44.688Z,23.65
2022-07-25T19:44:15.052Z,23.48
2022-07-25T19:46:44.720Z,23.34
2022-07-25T19:49:12.932Z,23.33
2022-07-25T19:51:40.819Z,23.26
2022-07-25T19:54:09.716Z,23.25
2022-07-25T19:56:38.035Z,23.10
2022-07-25T19:59:05.999Z,23.04
2022-07-25T20:01:35.908Z,23.03
2022-07-25T20:04:08.701Z,23.06
2022-07-25T20:06:37.214Z,22.95
2022-07-25T20:09:06.035Z,23.02
2022-07-25T20:11:34.578Z,22.93
2022-07-25T20:14:02.452Z,22.94
2022-07-25T20:16:30.653Z,22.83
2022-07-25T20:18:58.589Z,22.77
2022-07-25T20:21:27.940Z,22.71
2022-07-25T20:23:55.754Z,22.54
2022-07-25T20:26:23.676Z,22.56
2022-07-25T20:28:51.645Z,22.44
2022-07-25T20:31:22.127Z,22.46
2022-07-25T20:33:50.289Z,22.47
2022-07-25T20:36:18.141Z,22.38
2022-07-25T20:38:47.453Z,22.32
2022-07-25T20:41:16.383Z,22.18
2022-07-25T20:43:44.380Z,22.21
2022-07-25T20:46:12.289Z,22.26
2022-07-25T20:48:40.305Z,22.21
2022-07-25T20:51:08.213Z,22.18
2022-07-25T20:53:36.072Z,22.15
2022-07-25T20:56:05.803Z,22.17
2022-07-25T20:58:33.807Z,22.22
2022-07-25T21:01:01.666Z,22.08
2022-07-25T21:03:29.594Z,22.18
2022-07-25T21:05:57.506Z,22.31
2022-07-25T21:08:25.324Z,22.33
2022-07-25T21:10:53.223Z,22.23
2022-07-25T21:13:22.412Z,22.19
2022-07-25T21:15:50.204Z,22.19
2022-07-25T21:18:19.944Z,22.14
2022-07-25T21:20:48.327Z,22.02
2022-07-25T21:23:17.684Z,21.98
2022-07-25T21:25:45.445Z,21.87
2022-07-25T21:28:13.828Z,21.78
2022-07-25T21:30:44.230Z,21.76
2022-07-25T21:33:14.720Z,21.82
2022-07-25T21:35:51.890Z,21.77
2022-07-25T21:38:26.788Z,21.78
2022-07-25T21:40:55.634Z,21.72
2022-07-25T21:43:23.549Z,21.73
2022-07-25T21:45:52.912Z,21.79
2022-07-25T21:48:43.015Z,21.69
2022-07-25T21:51:10.306Z,21.58
2022-07-25T21:53:47.693Z,21.52
2022-07-25T21:56:15.624Z,21.51
2022-07-25T21:58:43.501Z,21.55
2022-07-25T22:01:13.111Z,21.43
2022-07-25T22:03:41.413Z,21.44
2022-07-25T22:06:10.125Z,21.43
2022-07-25T22:08:39.474Z,21.44
2022-07-25T22:11:15.606Z,21.43
2022-07-25T22:13:55.172Z,21.35
2022-07-25T22:16:24.399Z,21.34
2022-07-25T22:18:52.226Z,21.36
2022-07-25T22:21:20.068Z,21.37
2022-07-25T22:23:47.841Z,21.29
2022-07-25T22:26:15.693Z,21.09
2022-07-25T22:28:43.485Z,21.14
2022-07-25T22:31:11.707Z,21.07
2022-07-25T22:33:41.141Z,20.92
2022-07-25T22:36:09.265Z,20.86
2022-07-25T22:38:37.749Z,20.85
2022-07-25T22:41:05.789Z,20.85
2022-07-25T22:43:57.669Z,20.87
2022-07-25T22:46:21.750Z,20.88
2022-07-25T22:48:50.929Z,20.97
2022-07-25T22:51:18.801Z,20.98
2022-07-25T22:53:46.646Z,20.99
2022-07-25T22:56:14.561Z,21.03
2022-07-25T22:58:42.763Z,20.99
2022-07-25T23:01:11.176Z,20.98
2022-07-25T23:03:39.249Z,21.06
2022-07-25T23:06:08.809Z,20.98
2022-07-25T23:08:36.554Z,20.91
2022-07-25T23:11:06.029Z,20.89
2022-07-25T23:13:34.033Z,20.84
2022-07-25T23:16:03.240Z,20.72
2022-07-25T23:18:31.326Z,20.73
2022-07-25T23:20:59.242Z,20.73
2022-07-25T23:23:28.462Z,20.71
2022-07-25T23:25:56.375Z,20.66
2022-07-25T23:28:24.188Z,20.67
2022-07-25T23:30:51.986Z,20.65
2022-07-25T23:33:25.159Z,20.54
2022-07-25T23:35:53.728Z,20.59
2022-07-25T23:38:22.119Z,20.64
2022-07-25T23:40:54.010Z,20.54
2022-07-25T23:43:56.686Z,20.47
2022-07-25T23:46:09.662Z,20.37
2022-07-25T23:48:39.502Z,20.31
2022-07-25T23:51:07.765Z,20.27
2022-07-25T23:53:36.598Z,20.31
2022-07-25T23:56:06.458Z,20.23
2022-07-25T23:58:34.401Z,20.19
